Time;durP1;ratioP1;P1;durP2;ratioP2;P2;SDS_P1;SDS_P2;PMS_P1;PMS_P2;Temp;Humidity;BMP_temperature;BMP_pressure;BME280_temperature;BME280_humidity;BME280_pressure;Samples;Min_cycle;Max_cycle;Signal;HPM_P1;HPM_P2
2024/01/28 00:02:05;;;;;;;6.63;3.75;;;16.00;46.10;;;;;;5022502;28;45414;-61
2024/01/28 00:04:31;;;;;;;5.22;4.00;;;16.00;46.10;;;;;;5022613;28;45485;-61
2024/01/28 00:06:58;;;;;;;5.25;3.90;;;16.00;46.10;;;;;;5022089;28;45317;-62
2024/01/28 00:09:27;;;;;;;5.57;3.90;;;16.00;46.10;;;;;;5021690;28;45424;-61
2024/01/28 00:11:54;;;;;;;6.78;4.07;;;16.00;46.10;;;;;;5022411;28;45352;-61
2024/01/28 00:14:20;;;;;;;8.30;4.03;;;15.90;46.00;;;;;;5022168;28;45488;-63
2024/01/28 00:16:47;;;;;;;4.53;3.30;;;15.90;46.00;;;;;;5021748;28;46380;-63
2024/01/28 00:19:14;;;;;;;5.53;3.53;;;15.90;46.00;;;;;;5021838;28;45317;-62
2024/01/28 00:21:41;;;;;;;4.97;3.72;;;15.90;46.00;;;;;;5021613;28;45423;-62
2024/01/28 00:24:08;;;;;;;5.32;3.85;;;15.80;46.10;;;;;;5022210;28;45401;-62
2024/01/28 00:26:39;;;;;;;4.18;3.30;;;15.80;46.10;;;;;;5021979;28;45791;-64
2024/01/28 00:29:06;;;;;;;5.63;3.85;;;15.80;46.00;;;;;;5021368;28;45321;-63
2024/01/28 00:31:33;;;;;;;5.68;3.50;;;15.70;46.00;;;;;;5002263;28;45234;-62
2024/01/28 00:34:00;;;;;;;4.93;3.80;;;15.70;46.00;;;;;;5002152;27;45253;-62
2024/01/28 00:36:27;;;;;;;6.82;4.47;;;15.70;46.00;;;;;;5001529;28;45321;-63
2024/01/28 00:38:54;;;;;;;7.07;4.80;;;15.70;46.70;;;;;;5001818;27;45583;-63
2024/01/28 00:41:22;;;;;;;4.18;3.50;;;15.60;46.10;;;;;;5001729;28;45377;-62
2024/01/28 00:43:52;;;;;;;5.07;3.90;;;15.60;46.10;;;;;;5001692;28;45646;-62
2024/01/28 00:46:20;;;;;;;4.78;3.63;;;15.60;46.20;;;;;;5001802;27;45506;-63
2024/01/28 00:48:46;;;;;;;4.80;3.60;;;15.50;46.10;;;;;;5001569;27;45315;-62
2024/01/28 00:51:14;;;;;;;6.00;3.90;;;15.50;46.10;;;;;;5001812;28;45445;-62
2024/01/28 00:53:40;;;;;;;6.97;4.03;;;15.50;46.10;;;;;;5001938;27;45359;-62
2024/01/28 00:56:07;;;;;;;6.38;5.05;;;15.50;46.20;;;;;;5001407;27;46684;-62
2024/01/28 00:58:34;;;;;;;5.68;4.28;;;15.40;46.00;;;;;;5001455;27;45386;-61
2024/01/28 01:01:03;;;;;;;6.55;4.60;;;15.40;46.20;;;;;;5001671;27;45279;-62
2024/01/28 01:03:30;;;;;;;5.20;3.70;;;15.40;46.20;;;;;;5001912;27;45262;-63
2024/01/28 01:05:56;;;;;;;6.57;4.22;;;15.30;46.20;;;;;;5001239;28;45191;-62
2024/01/28 01:08:23;;;;;;;5.05;3.65;;;15.30;46.10;;;;;;5000737;27;45257;-62
2024/01/28 01:10:50;;;;;;;6.65;4.72;;;15.30;46.20;;;;;;5001355;28;45394;-62
2024/01/28 01:13:17;;;;;;;5.45;3.72;;;15.30;46.20;;;;;;5001631;27;45418;-62
2024/01/28 01:15:44;;;;;;;5.57;3.85;;;15.20;46.20;;;;;;5003154;27;46507;-62
2024/01/28 01:18:13;;;;;;;4.88;4.38;;;15.20;46.20;;;;;;5021048;27;45253;-62
2024/01/28 01:20:40;;;;;;;5.55;4.55;;;15.20;46.20;;;;;;5021050;28;45296;-58
2024/01/28 01:23:07;;;;;;;4.90;4.18;;;15.10;46.20;;;;;;5021199;28;45335;-61
2024/01/28 01:25:33;;;;;;;4.85;3.65;;;15.10;46.30;;;;;;5020773;28;46365;-61
2024/01/28 01:28:00;;;;;;;3.88;3.33;;;15.10;46.30;;;;;;5020800;28;45318;-61
2024/01/28 01:30:27;;;;;;;5.10;3.60;;;15.10;46.30;;;;;;5009620;28;45171;-61
2024/01/28 01:32:54;;;;;;;5.38;4.03;;;15.00;46.20;;;;;;5002226;27;45185;-62
2024/01/28 01:35:22;;;;;;;5.72;4.40;;;15.00;46.30;;;;;;5004325;27;46592;-61
2024/01/28 01:37:49;;;;;;;6.57;4.20;;;15.00;46.30;;;;;;5004126;28;45353;-62
2024/01/28 01:40:16;;;;;;;5.18;4.05;;;15.00;46.40;;;;;;5003999;28;45338;-61
2024/01/28 01:42:43;;;;;;;3.75;2.92;;;14.90;46.30;;;;;;5004561;28;45341;-61
2024/01/28 01:45:10;;;;;;;4.07;3.63;;;14.90;46.30;;;;;;5004192;27;45886;-61
2024/01/28 01:47:37;;;;;;;3.83;3.03;;;14.90;46.30;;;;;;5004061;28;45316;-61
2024/01/28 01:50:05;;;;;;;4.78;3.70;;;14.90;46.30;;;;;;5004398;27;45348;-61
2024/01/28 01:52:33;;;;;;;3.95;3.50;;;14.80;46.30;;;;;;5004232;28;45387;-61
2024/01/28 01:55:00;;;;;;;4.45;3.83;;;14.80;46.30;;;;;;5003767;28;46316;-62
2024/01/28 01:57:27;;;;;;;5.82;4.63;;;14.80;46.40;;;;;;5004146;27;45326;-61
2024/01/28 01:59:54;;;;;;;5.70;3.83;;;14.70;46.30;;;;;;5003799;28;45316;-62
2024/01/28 02:02:21;;;;;;;4.60;3.97;;;14.70;46.40;;;;;;5004183;27;45229;-61
2024/01/28 02:04:49;;;;;;;3.92;3.50;;;14.70;46.40;;;;;;5003876;27;45294;-61
2024/01/28 02:07:16;;;;;;;5.85;3.95;;;14.70;46.40;;;;;;5003660;28;45399;-62
2024/01/28 02:09:44;;;;;;;6.03;4.00;;;14.70;46.40;;;;;;5003630;27;45404;-61
2024/01/28 02:12:11;;;;;;;3.65;3.20;;;14.60;46.40;;;;;;5003927;28;45576;-61
2024/01/28 02:14:39;;;;;;;4.95;3.72;;;14.60;46.30;;;;;;5003606;27;46313;-61
2024/01/28 02:17:06;;;;;;;3.85;3.30;;;14.60;46.30;;;;;;5016675;27;45369;-61
2024/01/28 02:19:33;;;;;;;3.33;2.88;;;14.60;46.30;;;;;;5023580;28;45375;-61
2024/01/28 02:22:00;;;;;;;4.72;3.80;;;14.50;46.40;;;;;;5023778;28;45406;-62
2024/01/28 02:24:28;;;;;;;4.20;3.78;;;14.50;46.30;;;;;;5023568;27;46395;-61
2024/01/28 02:26:55;;;;;;;5.70;4.05;;;14.50;46.40;;;;;;5023325;28;45329;-61
2024/01/28 02:29:22;;;;;;;5.00;3.72;;;14.50;46.40;;;;;;5020874;28;45469;-62
2024/01/28 02:31:49;;;;;;;4.78;3.63;;;14.50;46.40;;;;;;5003492;28;45442;-61
2024/01/28 02:34:16;;;;;;;5.70;3.58;;;14.40;46.30;;;;;;5003587;27;46729;-61
2024/01/28 02:36:43;;;;;;;4.93;3.88;;;14.40;46.40;;;;;;5003196;27;45357;-62
2024/01/28 02:39:10;;;;;;;3.80;3.33;;;14.40;46.40;;;;;;5003354;27;45338;-61
2024/01/28 02:41:38;;;;;;;5.22;3.75;;;14.40;46.40;;;;;;5003501;28;45301;-62
2024/01/28 02:44:06;;;;;;;3.85;3.08;;;14.30;46.40;;;;;;5003145;28;45289;-61
2024/01/28 02:46:32;;;;;;;4.25;3.50;;;14.30;46.40;;;;;;5003145;28;45278;-61
2024/01/28 02:49:00;;;;;;;4.40;3.17;;;14.30;46.40;;;;;;5003528;27;45154;-61
2024/01/28 02:51:27;;;;;;;4.35;3.40;;;14.30;46.40;;;;;;5003655;27;45370;-61
2024/01/28 02:53:53;;;;;;;4.28;3.55;;;14.20;46.40;;;;;;5003317;27;45377;-61
2024/01/28 02:56:20;;;;;;;4.88;3.78;;;14.20;46.40;;;;;;5003115;27;45511;-61
2024/01/28 02:58:49;;;;;;;4.95;3.67;;;14.20;46.40;;;;;;5003359;27;45241;-62
2024/01/28 03:01:16;;;;;;;3.92;3.53;;;14.20;46.30;;;;;;5003608;27;45543;-61
2024/01/28 03:03:43;;;;;;;3.55;2.78;;;14.20;46.40;;;;;;5003018;27;45782;-61
2024/01/28 03:06:10;;;;;;;3.97;3.03;;;14.20;46.40;;;;;;5003222;28;45398;-61
2024/01/28 03:08:37;;;;;;;4.03;3.15;;;14.10;46.40;;;;;;5002715;27;45524;-62
2024/01/28 03:11:04;;;;;;;4.82;3.50;;;14.10;46.40;;;;;;5003216;28;45396;-61
2024/01/28 03:13:30;;;;;;;4.35;3.22;;;14.10;46.40;;;;;;5002824;28;46948;-62
2024/01/28 03:15:59;;;;;;;4.35;3.50;;;14.10;46.40;;;;;;5006511;28;45438;-63
2024/01/28 03:18:26;;;;;;;5.15;3.67;;;14.00;46.40;;;;;;5022716;28;45358;-62
2024/01/28 03:20:53;;;;;;;5.65;3.78;;;14.00;46.40;;;;;;5022816;28;45477;-61
2024/01/28 03:23:20;;;;;;;4.47;3.58;;;14.00;46.40;;;;;;5022528;28;47525;-61
2024/01/28 03:25:47;;;;;;;4.05;2.70;;;14.00;46.40;;;;;;5022591;28;45445;-61
2024/01/28 03:28:14;;;;;;;4.25;3.38;;;14.00;46.40;;;;;;5022853;27;45402;-61
2024/01/28 03:30:41;;;;;;;4.82;3.60;;;13.90;46.40;;;;;;5009399;28;45300;-61
2024/01/28 03:33:10;;;;;;;3.50;3.20;;;13.90;46.40;;;;;;5002607;27;45316;-62
2024/01/28 03:35:37;;;;;;;3.90;3.00;;;13.90;46.40;;;;;;5002829;27;45383;-61
2024/01/28 03:38:05;;;;;;;4.78;3.10;;;13.90;46.40;;;;;;5002804;27;45341;-61
2024/01/28 03:40:32;;;;;;;3.58;3.13;;;13.90;46.40;;;;;;5000107;28;45252;-62
2024/01/28 03:42:59;;;;;;;3.42;3.13;;;13.80;46.40;;;;;;5002573;27;45416;-61
2024/01/28 03:45:26;;;;;;;4.00;3.05;;;13.80;46.40;;;;;;5002518;27;45367;-61
2024/01/28 03:47:53;;;;;;;4.00;3.22;;;13.80;46.40;;;;;;5002573;28;45374;-61
2024/01/28 03:50:22;;;;;;;3.20;2.90;;;13.80;46.50;;;;;;5002689;27;45559;-60
2024/01/28 03:52:49;;;;;;;4.10;3.17;;;13.70;46.40;;;;;;5002301;28;45326;-61
2024/01/28 03:55:15;;;;;;;4.20;3.25;;;13.70;46.40;;;;;;5001799;27;45382;-61
2024/01/28 03:57:43;;;;;;;3.70;3.00;;;13.70;46.40;;;;;;5002467;28;45343;-61
2024/01/28 04:00:12;;;;;;;3.20;2.90;;;13.70;46.50;;;;;;5002687;28;45389;-61
2024/01/28 04:02:39;;;;;;;3.22;2.92;;;13.60;46.40;;;;;;5002140;28;45330;-62
2024/01/28 04:05:07;;;;;;;4.22;3.17;;;13.60;46.40;;;;;;5002437;28;45604;-61
2024/01/28 04:07:35;;;;;;;4.18;3.00;;;13.60;46.50;;;;;;5002311;28;46142;-61
2024/01/28 04:10:02;;;;;;;4.00;3.30;;;13.60;46.60;;;;;;5002396;27;45399;-61
2024/01/28 04:12:29;;;;;;;5.20;2.60;;;13.60;46.60;;;;;;5002275;27;46746;-61
2024/01/28 04:14:56;;;;;;;3.17;2.75;;;13.60;46.50;;;;;;5002292;27;45462;-61
2024/01/28 04:17:23;;;;;;;3.30;3.00;;;13.70;46.40;;;;;;5017591;27;45369;-61
2024/01/28 04:19:51;;;;;;;3.72;3.00;;;13.70;46.40;;;;;;5021935;28;45346;-62
2024/01/28 04:22:18;;;;;;;3.75;2.90;;;13.70;46.30;;;;;;5022014;27;45328;-61
2024/01/28 04:24:46;;;;;;;3.47;3.03;;;13.80;46.90;;;;;;5021822;28;45283;-62
2024/01/28 04:27:13;;;;;;;4.00;3.00;;;13.80;46.20;;;;;;5021813;28;45320;-61
2024/01/28 04:29:41;;;;;;;3.40;2.70;;;13.90;46.20;;;;;;5016822;28;45440;-60
2024/01/28 04:32:10;;;;;;;3.65;2.80;;;13.90;46.00;;;;;;5001724;27;48185;-63
2024/01/28 04:34:37;;;;;;;3.58;2.70;;;14.00;45.90;;;;;;5001812;27;45573;-63
2024/01/28 04:37:04;;;;;;;2.88;2.45;;;14.10;45.80;;;;;;5001729;28;45461;-63
2024/01/28 04:39:30;;;;;;;3.45;2.60;;;14.20;45.70;;;;;;5001884;28;45358;-63
2024/01/28 04:41:59;;;;;;;3.55;2.50;;;14.30;45.50;;;;;;5001534;27;45546;-61
2024/01/28 04:44:25;;;;;;;3.00;2.40;;;14.40;45.40;;;;;;5001609;27;45284;-63
2024/01/28 04:46:52;;;;;;;3.60;2.40;;;14.50;45.20;;;;;;5001775;27;45305;-62
2024/01/28 04:49:19;;;;;;;2.90;2.60;;;14.60;45.00;;;;;;5001850;27;45312;-62
2024/01/28 04:51:46;;;;;;;2.97;2.58;;;14.70;44.90;;;;;;5001699;27;48120;-63
2024/01/28 04:54:14;;;;;;;2.90;2.53;;;14.90;44.70;;;;;;5001849;27;45330;-62
2024/01/28 04:56:41;;;;;;;2.90;2.33;;;15.00;44.50;;;;;;5001846;27;45289;-62
2024/01/28 04:59:10;;;;;;;4.97;2.72;;;15.10;44.30;;;;;;5001572;28;45483;-63
2024/01/28 05:01:36;;;;;;;2.78;2.20;;;15.20;44.10;;;;;;5001184;28;45417;-61
2024/01/28 05:04:04;;;;;;;3.22;2.10;;;15.30;43.90;;;;;;5001283;27;45309;-62
2024/01/28 05:06:35;;;;;;;2.80;2.17;;;15.40;43.70;;;;;;5001376;28;45375;-63
2024/01/28 05:09:03;;;;;;;3.28;2.30;;;15.50;43.50;;;;;;5003783;27;45291;-63
2024/01/28 05:11:29;;;;;;;3.30;2.20;;;15.60;43.30;;;;;;5004329;27;46640;-63
2024/01/28 05:13:56;;;;;;;2.60;2.00;;;15.70;43.20;;;;;;5004469;27;45310;-62
2024/01/28 05:16:25;;;;;;;2.30;2.05;;;15.80;43.00;;;;;;5012091;27;45323;-62
2024/01/28 05:18:52;;;;;;;2.80;1.98;;;15.90;42.90;;;;;;5022048;28;45359;-63
2024/01/28 05:21:19;;;;;;;3.38;2.00;;;15.90;42.70;;;;;;5023881;28;45421;-63
2024/01/28 05:23:46;;;;;;;2.20;2.00;;;16.00;42.50;;;;;;5024285;28;45317;-63
2024/01/28 05:26:14;;;;;;;3.78;2.40;;;16.10;42.40;;;;;;5024300;28;45427;-63
2024/01/28 05:28:41;;;;;;;3.20;1.85;;;16.20;42.20;;;;;;5024359;28;45430;-63
2024/01/28 05:31:08;;;;;;;2.30;1.90;;;16.20;42.10;;;;;;5006782;28;46393;-62
2024/01/28 05:33:37;;;;;;;2.17;1.98;;;16.30;42.00;;;;;;5004237;27;45340;-62
2024/01/28 05:36:10;;;;;;;1.65;1.55;;;16.40;41.90;;;;;;5004738;27;45325;-62
2024/01/28 05:38:37;;;;;;;2.53;2.03;;;16.40;41.70;;;;;;5004237;28;45457;-61
2024/01/28 05:41:04;;;;;;;3.10;1.88;;;16.50;41.60;;;;;;5003659;27;46406;-62
2024/01/28 05:43:31;;;;;;;2.13;1.88;;;16.50;41.50;;;;;;5004202;28;45394;-61
2024/01/28 05:45:58;;;;;;;2.45;2.08;;;16.60;41.50;;;;;;5004403;27;45212;-62
2024/01/28 05:48:25;;;;;;;2.25;1.70;;;16.60;41.30;;;;;;5004247;27;45356;-61
2024/01/28 05:50:53;;;;;;;2.35;1.98;;;16.70;41.30;;;;;;5003880;28;47527;-61
2024/01/28 05:53:20;;;;;;;2.13;1.73;;;16.70;41.10;;;;;;5003868;28;45314;-62
2024/01/28 05:55:47;;;;;;;2.05;1.58;;;16.80;41.00;;;;;;5004202;27;45267;-61
2024/01/28 05:58:14;;;;;;;4.40;1.83;;;16.80;41.00;;;;;;5004252;28;45261;-62
2024/01/28 06:00:41;;;;;;;1.75;1.65;;;16.80;40.90;;;;;;5003798;27;46340;-61
2024/01/28 06:03:08;;;;;;;2.97;1.67;;;16.90;40.80;;;;;;5003775;27;45303;-61
2024/01/28 06:05:35;;;;;;;3.78;1.90;;;16.90;40.80;;;;;;5003984;27;45350;-61
2024/01/28 06:08:03;;;;;;;2.20;1.50;;;17.00;40.70;;;;;;5003979;27;45366;-62
2024/01/28 06:10:29;;;;;;;1.63;1.50;;;17.00;40.50;;;;;;5003405;28;45338;-61
2024/01/28 06:12:56;;;;;;;1.73;1.63;;;17.00;40.50;;;;;;5003954;27;45315;-62
2024/01/28 06:15:23;;;;;;;1.83;1.48;;;17.10;40.50;;;;;;5004105;27;45295;-63
2024/01/28 06:17:50;;;;;;;2.28;1.83;;;17.10;40.40;;;;;;5023141;27;45387;-63
2024/01/28 06:20:17;;;;;;;1.95;1.70;;;17.10;40.30;;;;;;5022726;28;46674;-63
2024/01/28 06:22:44;;;;;;;1.67;1.48;;;17.20;40.30;;;;;;5023798;28;45318;-61
2024/01/28 06:25:12;;;;;;;2.10;1.55;;;17.20;40.20;;;;;;5023682;28;45379;-61
2024/01/28 06:27:39;;;;;;;2.65;1.70;;;17.20;40.10;;;;;;5023640;28;45544;-63
2024/01/28 06:30:07;;;;;;;1.60;1.40;;;17.30;40.10;;;;;;5014650;28;46366;-61
2024/01/28 06:32:35;;;;;;;2.67;1.50;;;17.30;40.00;;;;;;5003536;28;45347;-62
2024/01/28 06:35:03;;;;;;;2.55;1.63;;;17.30;40.00;;;;;;5003429;28;45322;-61
2024/01/28 06:37:30;;;;;;;1.35;1.25;;;17.30;39.90;;;;;;5003562;28;45326;-61
2024/01/28 06:39:57;;;;;;;1.50;1.40;;;17.30;39.80;;;;;;5003339;27;46312;-61
2024/01/28 06:42:26;;;;;;;1.92;1.63;;;17.40;39.80;;;;;;5003372;27;45312;-61
2024/01/28 06:44:52;;;;;;;1.48;1.30;;;17.40;39.70;;;;;;5003748;27;45394;-61
2024/01/28 06:47:19;;;;;;;2.00;1.73;;;17.40;39.70;;;;;;5003413;28;45393;-61
2024/01/28 06:49:50;;;;;;;1.88;1.27;;;17.40;39.60;;;;;;5003371;27;45526;-62
2024/01/28 06:52:16;;;;;;;1.35;1.25;;;17.40;39.50;;;;;;5003447;27;45285;-63
2024/01/28 06:54:43;;;;;;;2.10;1.60;;;17.50;39.60;;;;;;5003388;27;45462;-62
2024/01/28 06:57:10;;;;;;;1.45;1.35;;;17.50;39.50;;;;;;5003415;27;45422;-61
2024/01/28 06:59:38;;;;;;;1.40;1.20;;;17.50;40.10;;;;;;5003104;27;46459;-62
2024/01/28 07:02:07;;;;;;;1.33;1.23;;;17.50;40.00;;;;;;5003092;28;45323;-61
2024/01/28 07:04:34;;;;;;;1.58;1.27;;;17.50;39.30;;;;;;5003290;27;45308;-62
2024/01/28 07:07:00;;;;;;;1.77;1.30;;;17.60;39.30;;;;;;5003356;27;45421;-62
2024/01/28 07:09:27;;;;;;;1.50;1.27;;;17.60;39.30;;;;;;5002565;28;46276;-63
2024/01/28 07:11:54;;;;;;;2.33;1.35;;;17.60;39.20;;;;;;5003117;28;45260;-62
2024/01/28 07:14:22;;;;;;;1.40;1.30;;;17.60;39.20;;;;;;5003230;27;45363;-62
2024/01/28 07:16:50;;;;;;;4.55;1.60;;;17.70;39.20;;;;;;5013952;27;45299;-62
2024/01/28 07:19:17;;;;;;;1.30;1.20;;;17.70;39.00;;;;;;5022523;28;45533;-62
2024/01/28 07:21:45;;;;;;;2.25;1.42;;;17.70;39.00;;;;;;5022647;28;45305;-62
2024/01/28 07:24:12;;;;;;;1.40;1.20;;;17.70;39.00;;;;;;5022802;27;45322;-63
2024/01/28 07:26:39;;;;;;;1.52;1.38;;;17.70;38.90;;;;;;5021601;28;45384;-61
2024/01/28 07:29:11;;;;;;;1.50;1.40;;;17.70;38.90;;;;;;5022155;27;45721;-61
2024/01/28 07:31:38;;;;;;;2.90;1.45;;;17.70;38.90;;;;;;5001677;27;45416;-62
2024/01/28 07:34:06;;;;;;;2.17;1.45;;;17.70;38.80;;;;;;5003019;27;45110;-61
2024/01/28 07:36:33;;;;;;;2.13;1.50;;;17.80;38.80;;;;;;5003191;27;45330;-61
2024/01/28 07:39:00;;;;;;;1.65;1.42;;;17.80;39.30;;;;;;5002717;27;46388;-61
2024/01/28 07:41:28;;;;;;;1.40;1.17;;;17.80;38.70;;;;;;5002588;27;45295;-62
2024/01/28 07:43:55;;;;;;;1.45;1.20;;;17.90;38.70;;;;;;4996185;27;45582;-62
2024/01/28 07:46:22;;;;;;;1.77;1.48;;;17.90;38.70;;;;;;5020322;27;45684;-62
2024/01/28 07:48:49;;;;;;;1.45;1.35;;;17.90;38.60;;;;;;5010579;28;47337;-63
2024/01/28 07:51:17;;;;;;;2.65;1.50;;;17.90;38.60;;;;;;5003010;27;45752;-62
2024/01/28 07:53:44;;;;;;;1.08;0.98;;;17.90;38.60;;;;;;5015477;28;45417;-65
2024/01/28 07:56:11;;;;;;;1.70;1.13;;;17.90;38.50;;;;;;5007271;28;45366;-63
2024/01/28 07:58:38;;;;;;;1.92;1.38;;;17.90;38.50;;;;;;5017137;28;46398;-63
2024/01/28 08:01:06;;;;;;;1.50;1.40;;;17.90;38.60;;;;;;5020943;28;45490;-63
2024/01/28 08:03:33;;;;;;;2.13;1.50;;;17.90;38.60;;;;;;5021687;27;45439;-63
2024/01/28 08:06:00;;;;;;;1.83;1.50;;;17.80;38.60;;;;;;5021511;27;45478;-63
2024/01/28 08:08:28;;;;;;;1.83;1.20;;;17.80;38.60;;;;;;5021634;27;45378;-65
2024/01/28 08:10:55;;;;;;;2.65;1.70;;;17.80;38.60;;;;;;5021835;28;45338;-62
2024/01/28 08:13:22;;;;;;;1.35;1.25;;;17.70;38.70;;;;;;5022046;27;45449;-62
2024/01/28 08:15:49;;;;;;;1.63;1.40;;;17.60;38.70;;;;;;5021653;28;45496;-63
2024/01/28 08:18:16;;;;;;;1.52;1.42;;;17.60;38.80;;;;;;5042736;27;45461;-62
2024/01/28 08:20:43;;;;;;;2.00;1.60;;;17.50;39.20;;;;;;5089467;27;45479;-61
2024/01/28 08:23:10;;;;;;;3.92;1.88;;;17.40;38.80;;;;;;5098562;27;45445;-62
2024/01/28 08:25:38;;;;;;;2.30;1.80;;;17.30;39.20;;;;;;5024384;27;45463;-62
2024/01/28 08:28:05;;;;;;;4.93;1.50;;;17.20;39.40;;;;;;5021839;27;47637;-62
2024/01/28 08:30:32;;;;;;;3.75;1.63;;;17.10;39.80;;;;;;5020143;27;45434;-63
2024/01/28 08:32:59;;;;;;;3.55;1.80;;;17.10;40.10;;;;;;5021193;28;45403;-62
2024/01/28 08:35:26;;;;;;;2.45;1.75;;;17.10;39.90;;;;;;5021472;28;45432;-62
2024/01/28 08:37:53;;;;;;;1.75;1.55;;;17.20;40.80;;;;;;5031627;27;47113;-61
2024/01/28 08:40:20;;;;;;;2.10;1.48;;;17.20;40.10;;;;;;5099913;27;45611;-61
2024/01/28 08:42:48;;;;;;;1.65;1.50;;;17.30;40.20;;;;;;5023222;27;45385;-62
2024/01/28 08:45:15;;;;;;;5.25;2.20;;;17.30;39.80;;;;;;5024485;27;45460;-61
2024/01/28 08:47:42;;;;;;;3.50;1.98;;;17.30;39.70;;;;;;5017973;28;45577;-61
2024/01/28 08:50:10;;;;;;;3.80;1.52;;;17.30;39.70;;;;;;5006758;27;45381;-61
2024/01/28 08:52:37;;;;;;;2.67;1.70;;;17.30;39.60;;;;;;5010320;28;45417;-62
2024/01/28 08:55:05;;;;;;;2.47;1.45;;;17.30;39.60;;;;;;5036653;27;45401;-60
2024/01/28 08:57:32;;;;;;;3.63;1.55;;;17.40;39.60;;;;;;5082831;27;46743;-61
2024/01/28 09:00:00;;;;;;;2.35;1.40;;;17.40;39.60;;;;;;5023712;28;45498;-61
2024/01/28 09:02:27;;;;;;;3.97;1.77;;;17.40;39.50;;;;;;5024402;28;45401;-62
2024/01/28 09:04:54;;;;;;;2.00;1.60;;;17.40;39.60;;;;;;5024711;28;45354;-61
2024/01/28 09:07:21;;;;;;;1.95;1.58;;;17.40;39.50;;;;;;5023888;28;47271;-61
2024/01/28 09:09:48;;;;;;;2.17;1.90;;;17.40;39.50;;;;;;5028397;27;45345;-61
2024/01/28 09:12:14;;;;;;;1.70;1.60;;;17.40;39.50;;;;;;5082688;27;45304;-61
2024/01/28 09:14:41;;;;;;;1.77;1.50;;;17.50;39.60;;;;;;5081978;27;45307;-61
2024/01/28 09:17:09;;;;;;;1.85;1.67;;;17.50;39.60;;;;;;5054884;27;45359;-61
2024/01/28 09:19:36;;;;;;;1.80;1.70;;;17.50;39.60;;;;;;5023905;28;45322;-62
2024/01/28 09:22:05;;;;;;;2.20;1.90;;;17.50;39.60;;;;;;5024090;28;45309;-61
2024/01/28 09:24:32;;;;;;;2.83;1.50;;;17.50;39.60;;;;;;5024416;28;45378;-61
2024/01/28 09:27:00;;;;;;;3.15;1.70;;;17.50;39.60;;;;;;5023778;28;46403;-60
2024/01/28 09:29:27;;;;;;;4.43;1.90;;;17.50;39.60;;;;;;5023971;28;45299;-60
2024/01/28 09:31:55;;;;;;;1.63;1.52;;;17.50;39.70;;;;;;5023932;28;45554;-61
2024/01/28 09:34:24;;;;;;;1.80;1.70;;;17.50;39.70;;;;;;5024137;28;45347;-60
2024/01/28 09:36:51;;;;;;;2.20;2.00;;;17.60;39.70;;;;;;5022442;28;46664;-60
2024/01/28 09:39:18;;;;;;;2.97;1.80;;;17.60;39.70;;;;;;5024032;27;45319;-60
2024/01/28 09:41:49;;;;;;;1.67;1.33;;;17.60;39.70;;;;;;5048182;27;45372;-62
2024/01/28 09:44:17;;;;;;;2.47;1.25;;;17.60;39.70;;;;;;5024183;28;45311;-61
2024/01/28 09:46:43;;;;;;;1.48;1.38;;;17.60;39.70;;;;;;5071828;27;46390;-61
2024/01/28 09:49:11;;;;;;;1.52;1.42;;;17.70;39.70;;;;;;5072886;27;45319;-61
2024/01/28 09:51:39;;;;;;;2.45;1.65;;;17.70;39.70;;;;;;5023926;28;45220;-61
2024/01/28 09:54:06;;;;;;;2.10;1.42;;;17.70;39.70;;;;;;5023488;28;45390;-61
2024/01/28 09:56:33;;;;;;;2.63;1.70;;;17.70;39.70;;;;;;5023460;28;45299;-60
2024/01/28 09:59:00;;;;;;;2.30;1.67;;;17.70;40.20;;;;;;5020124;27;45765;-60
2024/01/28 10:01:29;;;;;;;1.52;1.42;;;17.80;40.60;;;;;;5070585;27;45453;-60
2024/01/28 10:03:56;;;;;;;1.30;1.20;;;17.80;40.50;;;;;;5058911;27;45228;-61
2024/01/28 10:06:23;;;;;;;3.97;1.48;;;17.80;40.60;;;;;;5030540;27;46971;-60
2024/01/28 10:08:51;;;;;;;3.65;1.50;;;17.90;40.70;;;;;;5128180;27;45433;-61
2024/01/28 10:11:17;;;;;;;2.85;1.42;;;17.90;40.80;;;;;;5075082;27;45341;-60
2024/01/28 10:13:45;;;;;;;3.53;1.77;;;17.90;41.00;;;;;;5016358;27;45428;-60
2024/01/28 10:16:12;;;;;;;8.18;1.90;;;17.90;41.10;;;;;;5015966;27;45295;-60
2024/01/28 10:18:39;;;;;;;5.95;1.50;;;17.90;41.70;;;;;;5015022;28;45454;-62
2024/01/28 10:21:06;;;;;;;1.70;1.60;;;18.10;42.40;;;;;;5012098;28;45458;-66
2024/01/28 10:23:36;;;;;;;3.17;1.45;;;18.20;42.40;;;;;;5020624;27;45619;-60
2024/01/28 10:26:05;;;;;;;2.95;1.63;;;18.30;41.80;;;;;;5012978;28;46570;-64
2024/01/28 10:28:32;;;;;;;2.47;2.20;;;18.40;41.80;;;;;;5013573;28;45441;-60
2024/01/28 10:30:59;;;;;;;2.42;1.50;;;18.50;41.80;;;;;;5016262;28;45501;-66
2024/01/28 10:33:27;;;;;;;15.00;2.08;;;18.60;41.70;;;;;;5010361;28;45583;-63
2024/01/28 10:35:53;;;;;;;5.47;1.75;;;18.60;41.60;;;;;;5018781;27;45464;-61
2024/01/28 10:38:20;;;;;;;7.80;1.70;;;18.70;41.70;;;;;;5020998;28;45392;-61
2024/01/28 10:40:47;;;;;;;8.18;2.00;;;18.80;41.70;;;;;;5014654;28;45476;-63
2024/01/28 10:43:17;;;;;;;5.18;2.00;;;18.80;41.40;;;;;;5012679;28;44843;-62
2024/01/28 10:45:44;;;;;;;12.88;2.33;;;18.90;41.70;;;;;;5021195;27;46566;-61
2024/01/28 10:48:17;;;;;;;7.85;2.35;;;19.00;41.40;;;;;;5019774;27;45646;-64
2024/01/28 10:50:44;;;;;;;5.90;1.88;;;19.10;41.60;;;;;;5022526;28;45583;-63
2024/01/28 10:53:12;;;;;;;4.78;1.80;;;19.10;41.20;;;;;;5017686;28;45326;-62
2024/01/28 10:55:39;;;;;;;4.22;1.98;;;19.20;41.30;;;;;;5021361;28;48406;-61
2024/01/28 10:58:06;;;;;;;3.17;1.92;;;19.30;42.10;;;;;;5021749;27;45340;-61
2024/01/28 11:00:34;;;;;;;6.25;1.88;;;19.50;42.20;;;;;;5022059;27;45405;-62
2024/01/28 11:03:01;;;;;;;4.75;2.50;;;19.60;42.00;;;;;;5016118;27;45508;-60
2024/01/28 11:05:28;;;;;;;4.28;2.00;;;19.70;41.00;;;;;;5022645;27;46413;-60
2024/01/28 11:07:59;;;;;;;2.90;1.75;;;19.70;40.10;;;;;;5022488;27;45337;-62
2024/01/28 11:10:27;;;;;;;7.43;1.92;;;19.70;40.30;;;;;;5022641;27;45321;-64
2024/01/28 11:12:54;;;;;;;3.83;1.95;;;19.70;40.20;;;;;;5022028;27;45437;-60
2024/01/28 11:15:21;;;;;;;17.58;2.03;;;19.70;40.30;;;;;;5016263;27;46412;-62
2024/01/28 11:17:50;;;;;;;4.07;2.05;;;19.80;40.30;;;;;;5016615;28;45244;-61
2024/01/28 11:20:23;;;;;;;6.75;1.67;;;19.90;41.10;;;;;;5022485;27;45261;-62
2024/01/28 11:22:51;;;;;;;4.70;1.85;;;20.00;40.40;;;;;;5011020;27;45552;-61
2024/01/28 11:25:20;;;;;;;5.95;1.88;;;20.10;40.40;;;;;;5022015;28;45421;-60
2024/01/28 11:27:47;;;;;;;2.60;1.90;;;20.30;40.30;;;;;;5022451;28;45248;-61
2024/01/28 11:30:14;;;;;;;13.50;2.75;;;20.50;40.00;;;;;;5020812;28;45330;-62
2024/01/28 11:32:42;;;;;;;5.43;2.10;;;20.60;39.90;;;;;;5013582;28;45426;-62
2024/01/28 11:35:11;;;;;;;5.68;2.00;;;20.60;39.30;;;;;;5019238;28;46632;-63
2024/01/28 11:37:41;;;;;;;6.57;2.03;;;20.60;39.00;;;;;;5012762;28;45484;-62
2024/01/28 11:40:10;;;;;;;5.85;2.42;;;20.50;39.40;;;;;;5009350;28;45381;-61
2024/01/28 11:42:36;;;;;;;4.78;1.95;;;20.50;39.10;;;;;;5016132;28;45374;-62
2024/01/28 11:45:04;;;;;;;3.65;1.73;;;20.50;39.60;;;;;;5022113;27;45780;-62
2024/01/28 11:47:31;;;;;;;5.32;1.95;;;20.50;39.10;;;;;;5018909;27;45442;-63
2024/01/28 11:49:58;;;;;;;8.93;2.08;;;20.40;39.20;;;;;;5014931;28;45608;-64
2024/01/28 11:52:28;;;;;;;3.20;1.60;;;20.40;39.20;;;;;;5012554;28;45353;-63
2024/01/28 11:54:57;;;;;;;2.42;1.73;;;20.40;39.60;;;;;;5011471;27;46683;-65
2024/01/28 11:57:24;;;;;;;2.22;1.40;;;20.60;39.80;;;;;;5012050;28;45448;-65
2024/01/28 11:59:50;;;;;;;3.33;1.80;;;20.70;39.80;;;;;;5014547;28;45291;-62
2024/01/28 12:02:19;;;;;;;4.05;2.13;;;20.80;40.10;;;;;;5014220;28;45458;-62
2024/01/28 12:04:46;;;;;;;5.55;2.38;;;20.90;39.90;;;;;;5015263;28;46679;-62
2024/01/28 12:07:13;;;;;;;3.03;2.40;;;20.90;39.70;;;;;;5013554;28;45348;-63
2024/01/28 12:09:41;;;;;;;9.98;2.38;;;21.00;39.30;;;;;;5020217;27;45515;-63
2024/01/28 12:12:09;;;;;;;7.72;2.38;;;21.00;39.20;;;;;;5011749;28;45448;-61
2024/01/28 12:14:35;;;;;;;4.47;2.17;;;21.10;39.30;;;;;;5015212;28;45596;-61
2024/01/28 12:17:02;;;;;;;6.47;1.95;;;21.10;39.50;;;;;;5007287;28;45444;-63
2024/01/28 12:19:29;;;;;;;4.38;2.17;;;21.10;39.20;;;;;;5013017;28;45515;-63
2024/01/28 12:21:58;;;;;;;3.72;2.08;;;21.20;39.30;;;;;;5014559;28;45478;-63
2024/01/28 12:24:25;;;;;;;11.10;1.80;;;21.30;39.50;;;;;;5013004;28;45415;-60
2024/01/28 12:26:54;;;;;;;8.35;1.50;;;21.30;39.70;;;;;;5014067;28;45511;-68
2024/01/28 12:29:21;;;;;;;6.72;2.05;;;21.30;38.50;;;;;;5010147;28;45409;-64
2024/01/28 12:31:48;;;;;;;3.03;2.03;;;21.30;39.20;;;;;;5015352;28;45340;-63
2024/01/28 12:34:15;;;;;;;3.55;1.67;;;21.40;39.30;;;;;;5013867;28;45403;-62
2024/01/28 12:36:42;;;;;;;5.85;2.17;;;21.40;39.20;;;;;;5014309;28;45466;-62
2024/01/28 12:39:09;;;;;;;4.45;2.80;;;21.50;39.20;;;;;;5011362;27;45356;-62
2024/01/28 12:41:36;;;;;;;7.88;3.47;;;21.50;39.20;;;;;;5011955;27;46470;-66
2024/01/28 12:44:05;;;;;;;5.82;4.90;;;21.50;38.70;;;;;;5013140;28;45735;-63
2024/01/28 12:46:33;;;;;;;5.55;4.20;;;21.50;39.10;;;;;;5010502;28;45444;-63